Time;durP1;ratioP1;P1;durP2;ratioP2;P2;SDS_P1;SDS_P2;PMS_P1;PMS_P2;Temp;Humidity;BMP_temperature;BMP_pressure;BME280_temperature;BME280_humidity;BME280_pressure;Samples;Min_cycle;Max_cycle;Signal;HPM_P1;HPM_P2
2023/06/01 00:02:05;;;;;;;11.52;4.22;;;13.60;99.90;;;;;;5104123;27;20504;-83
2023/06/01 00:04:30;;;;;;;11.35;3.70;;;13.50;99.90;;;;;;5104299;27;20044;-83
2023/06/01 00:06:56;;;;;;;12.07;3.65;;;13.50;99.90;;;;;;5082994;28;20404;-83
2023/06/01 00:09:22;;;;;;;13.70;5.72;;;13.50;99.90;;;;;;5112338;28;20078;-84
2023/06/01 00:11:47;;;;;;;12.98;5.90;;;13.60;99.90;;;;;;5106138;28;20043;-83
2023/06/01 00:14:13;;;;;;;12.73;3.85;;;13.70;99.90;;;;;;5111760;27;20130;-83
2023/06/01 00:16:38;;;;;;;13.35;4.38;;;13.60;99.90;;;;;;5092772;28;20047;-83
2023/06/01 00:19:05;;;;;;;10.48;3.90;;;13.60;99.90;;;;;;5111559;28;20062;-83
2023/06/01 00:21:32;;;;;;;12.60;4.40;;;13.50;99.90;;;;;;5093420;28;20055;-84
2023/06/01 00:23:58;;;;;;;18.73;6.65;;;13.50;99.90;;;;;;5112140;28;20051;-83
2023/06/01 00:26:25;;;;;;;13.40;4.22;;;13.60;99.90;;;;;;5111980;28;20373;-83
2023/06/01 00:28:51;;;;;;;16.40;6.43;;;13.60;99.90;;;;;;5093806;28;20071;-83
2023/06/01 00:31:16;;;;;;;20.63;5.80;;;13.60;99.90;;;;;;5093561;28;20074;-83
2023/06/01 00:33:42;;;;;;;11.07;3.95;;;13.60;99.90;;;;;;5096346;28;20042;-83
2023/06/01 00:36:08;;;;;;;14.27;4.28;;;13.60;99.90;;;;;;5097980;28;20397;-83
2023/06/01 00:38:34;;;;;;;12.57;6.07;;;13.60;99.90;;;;;;5097862;28;20034;-83
2023/06/01 00:41:00;;;;;;;12.27;3.85;;;13.60;99.90;;;;;;5115884;28;20038;-83
2023/06/01 00:43:26;;;;;;;10.40;4.72;;;13.50;99.90;;;;;;5097772;28;20043;-83
2023/06/01 00:45:52;;;;;;;13.45;4.72;;;13.50;99.90;;;;;;5099095;27;20454;-84
2023/06/01 00:48:18;;;;;;;12.95;4.45;;;13.40;99.90;;;;;;5107120;27;20043;-84
2023/06/01 00:50:44;;;;;;;13.82;6.20;;;13.40;99.90;;;;;;5108123;27;20054;-83
2023/06/01 00:53:16;;;;;;;13.32;6.30;;;13.50;99.90;;;;;;5106067;27;20040;-83
2023/06/01 00:55:42;;;;;;;11.45;4.15;;;13.50;99.90;;;;;;5106937;27;20114;-83
2023/06/01 00:58:08;;;;;;;14.60;5.00;;;13.50;99.90;;;;;;5126608;27;20071;-83
2023/06/01 01:00:34;;;;;;;14.73;6.10;;;13.40;99.90;;;;;;5106213;27;20032;-83
2023/06/01 01:03:07;;;;;;;14.27;6.50;;;13.40;99.90;;;;;;5107270;27;20041;-83
2023/06/01 01:05:33;;;;;;;12.07;4.13;;;13.50;99.90;;;;;;5104121;27;20532;-83
2023/06/01 01:08:30;;;;;;;12.05;4.25;;;13.40;99.90;;;;;;5107164;27;20042;-83
2023/06/01 01:11:07;;;;;;;15.60;5.03;;;13.30;99.90;;;;;;5076416;28;20132;-83
2023/06/01 01:13:54;;;;;;;12.88;3.78;;;13.30;99.90;;;;;;5076939;28;20039;-83
2023/06/01 01:16:28;;;;;;;13.98;6.32;;;13.20;99.90;;;;;;5076938;28;20120;-83
2023/06/01 01:19:31;;;;;;;10.98;4.07;;;13.30;99.90;;;;;;5076931;28;20119;-83
2023/06/01 01:22:16;;;;;;;12.90;3.58;;;13.20;99.90;;;;;;5077078;28;20036;-83
2023/06/01 01:24:54;;;;;;;14.43;6.53;;;13.20;99.90;;;;;;5077154;28;20043;-83
2023/06/01 01:27:38;;;;;;;14.02;4.00;;;13.30;99.90;;;;;;5076486;28;20044;-83
2023/06/01 01:30:07;;;;;;;11.35;4.43;;;13.20;99.90;;;;;;5076272;28;20405;-83
2023/06/01 01:32:35;;;;;;;15.77;6.78;;;13.20;99.90;;;;;;5076587;28;20516;-83
2023/06/01 01:35:03;;;;;;;13.05;4.35;;;13.20;99.90;;;;;;5076560;28;20553;-83
2023/06/01 01:37:28;;;;;;;18.02;4.38;;;13.20;99.90;;;;;;5076510;28;20047;-83
2023/06/01 01:39:54;;;;;;;16.63;6.80;;;13.10;99.90;;;;;;5076092;28;20032;-83
2023/06/01 01:42:20;;;;;;;13.63;4.25;;;13.20;99.90;;;;;;5094580;28;20040;-83
2023/06/01 01:44:46;;;;;;;16.55;3.80;;;13.20;99.90;;;;;;5093687;28;20497;-83
2023/06/01 01:47:23;;;;;;;14.45;6.20;;;13.20;99.90;;;;;;5076260;28;20032;-83
2023/06/01 01:49:55;;;;;;;11.27;4.03;;;13.20;99.90;;;;;;5076281;28;20036;-83
2023/06/01 01:52:23;;;;;;;;;;;13.20;99.90;;;;;;5076769;28;20054;-83
2023/06/01 01:54:50;;;;;;;11.35;4.10;;;13.10;99.90;;;;;;5076461;28;20361;-83
2023/06/01 01:57:17;;;;;;;11.10;3.90;;;13.00;99.90;;;;;;5094292;28;20040;-83
2023/06/01 01:59:45;;;;;;;11.45;4.15;;;13.00;99.90;;;;;;5075634;28;20149;-83
2023/06/01 02:02:11;;;;;;;10.40;4.00;;;13.00;99.90;;;;;;5076121;28;20096;-83
2023/06/01 02:04:45;;;;;;;14.63;4.20;;;13.00;99.90;;;;;;5075911;28;20049;-83
2023/06/01 02:07:11;;;;;;;15.27;7.00;;;13.00;99.90;;;;;;5075988;28;20062;-83
2023/06/01 02:09:38;;;;;;;15.07;5.28;;;13.10;99.90;;;;;;5075514;28;20036;-83
2023/06/01 02:12:04;;;;;;;15.85;4.40;;;13.00;99.90;;;;;;5076175;28;20036;-83
2023/06/01 02:14:30;;;;;;;14.00;4.15;;;13.00;99.90;;;;;;5075940;28;20631;-83
2023/06/01 02:16:55;;;;;;;15.05;6.53;;;13.00;99.90;;;;;;5075828;28;20122;-83
2023/06/01 02:19:21;;;;;;;12.32;4.25;;;13.00;99.90;;;;;;5075573;28;20044;-83
2023/06/01 02:21:47;;;;;;;14.20;7.30;;;13.00;99.90;;;;;;5075378;28;20044;-83
2023/06/01 02:24:13;;;;;;;13.55;3.90;;;13.00;99.90;;;;;;5075875;28;20409;-84
2023/06/01 02:26:39;;;;;;;15.85;7.28;;;13.00;99.90;;;;;;5075852;28;20493;-83
2023/06/01 02:29:05;;;;;;;12.25;3.95;;;13.00;99.90;;;;;;5075477;28;20055;-83
2023/06/01 02:31:34;;;;;;;14.98;6.75;;;13.00;99.90;;;;;;5093202;28;20512;-83
2023/06/01 02:34:01;;;;;;;13.60;7.47;;;13.00;99.90;;;;;;5075415;28;20506;-83
2023/06/01 02:36:28;;;;;;;9.75;3.75;;;13.00;99.90;;;;;;5075326;28;20044;-83
2023/06/01 02:38:57;;;;;;;11.27;4.15;;;13.00;99.90;;;;;;5075344;28;20051;-83
2023/06/01 02:41:22;;;;;;;11.77;4.72;;;12.90;99.90;;;;;;5075060;28;20039;-83
2023/06/01 02:43:50;;;;;;;14.82;7.20;;;12.90;99.90;;;;;;5075283;28;20043;-84
2023/06/01 02:46:17;;;;;;;17.27;7.78;;;12.90;99.90;;;;;;5075412;28;20063;-84
2023/06/01 02:48:43;;;;;;;11.90;4.38;;;13.00;99.90;;;;;;5074862;28;20052;-83
2023/06/01 02:51:08;;;;;;;11.20;4.47;;;12.90;99.90;;;;;;5075363;28;20036;-83
2023/06/01 02:53:34;;;;;;;13.77;5.82;;;12.90;99.90;;;;;;5058359;28;20502;-83
2023/06/01 02:56:00;;;;;;;14.38;4.00;;;12.80;99.90;;;;;;5074889;28;20066;-83
2023/06/01 02:58:29;;;;;;;15.18;5.07;;;12.80;99.90;;;;;;5075165;28;20044;-83
2023/06/01 03:00:57;;;;;;;12.90;3.97;;;12.80;99.90;;;;;;5074572;28;20550;-83
2023/06/01 03:03:26;;;;;;;14.30;4.53;;;12.80;99.90;;;;;;5058257;28;20066;-83
2023/06/01 03:05:52;;;;;;;10.88;3.63;;;12.70;99.90;;;;;;5075169;28;20040;-83
2023/06/01 03:08:18;;;;;;;11.68;4.53;;;12.70;99.90;;;;;;5058170;28;20047;-83
2023/06/01 03:10:44;;;;;;;14.90;7.78;;;12.70;99.90;;;;;;5092337;28;20055;-83
2023/06/01 03:13:10;;;;;;;11.05;4.28;;;12.80;99.90;;;;;;5074562;28;20086;-83
2023/06/01 03:15:37;;;;;;;11.82;4.45;;;12.80;99.90;;;;;;5074866;28;20032;-83
2023/06/01 03:18:06;;;;;;;14.18;4.63;;;12.80;99.90;;;;;;5074551;28;20059;-83
2023/06/01 03:20:32;;;;;;;11.50;4.07;;;12.70;99.90;;;;;;5074178;28;20044;-83
2023/06/01 03:22:58;;;;;;;14.68;4.72;;;12.70;99.90;;;;;;5074242;28;20131;-83
2023/06/01 03:25:24;;;;;;;11.20;4.03;;;12.70;99.90;;;;;;5074562;28;20126;-83
2023/06/01 03:27:50;;;;;;;16.58;7.68;;;12.70;99.90;;;;;;5074359;28;20486;-83
2023/06/01 03:30:16;;;;;;;15.40;7.10;;;12.80;99.90;;;;;;5073858;28;20074;-84
2023/06/01 03:32:42;;;;;;;12.73;4.55;;;12.90;99.90;;;;;;5074335;28;20056;-84
2023/06/01 03:35:09;;;;;;;10.57;3.90;;;12.80;99.90;;;;;;5074281;28;20126;-83
2023/06/01 03:37:36;;;;;;;11.80;4.90;;;12.70;99.90;;;;;;5092357;28;20114;-83
2023/06/01 03:40:10;;;;;;;10.60;3.90;;;12.70;99.90;;;;;;5074137;28;20048;-83
2023/06/01 03:42:47;;;;;;;14.48;6.10;;;12.70;99.90;;;;;;5091939;28;20047;-83
2023/06/01 03:45:15;;;;;;;12.45;6.20;;;12.80;99.90;;;;;;5111643;28;20435;-83
2023/06/01 03:47:41;;;;;;;10.70;3.58;;;12.80;99.90;;;;;;5111198;28;20092;-83
2023/06/01 03:50:09;;;;;;;12.65;3.65;;;12.70;99.90;;;;;;5111263;28;20047;-83
2023/06/01 03:52:35;;;;;;;13.73;3.67;;;12.70;99.90;;;;;;5111317;28;20123;-83
2023/06/01 03:55:07;;;;;;;13.20;6.25;;;12.60;99.90;;;;;;5111241;28;20074;-83
2023/06/01 03:57:34;;;;;;;10.15;3.72;;;12.70;99.90;;;;;;5111088;28;20402;-86
2023/06/01 04:00:00;;;;;;;10.07;3.17;;;12.70;99.90;;;;;;5110774;28;20075;-83
2023/06/01 04:02:26;;;;;;;12.23;3.35;;;12.60;99.90;;;;;;5111179;28;20078;-83
2023/06/01 04:04:52;;;;;;;13.23;6.32;;;12.50;99.90;;;;;;5094040;28;20123;-83
2023/06/01 04:07:18;;;;;;;13.93;3.65;;;12.60;99.90;;;;;;5110709;28;20047;-83
2023/06/01 04:09:46;;;;;;;11.50;4.32;;;12.60;99.90;;;;;;5110604;28;20096;-83
2023/06/01 04:12:13;;;;;;;13.23;3.90;;;12.60;99.90;;;;;;5110686;28;20048;-83
2023/06/01 04:14:39;;;;;;;13.82;6.35;;;12.60;99.90;;;;;;5111071;28;20050;-84
2023/06/01 04:17:06;;;;;;;12.25;3.90;;;12.70;99.90;;;;;;5110995;28;20489;-84
2023/06/01 04:19:33;;;;;;;12.32;6.32;;;12.70;99.90;;;;;;5110456;28;20124;-84
2023/06/01 04:21:59;;;;;;;13.50;4.25;;;12.70;99.90;;;;;;5112177;28;20405;-83
2023/06/01 04:24:25;;;;;;;8.85;3.15;;;12.70;99.90;;;;;;5110951;28;20051;-84
2023/06/01 04:26:50;;;;;;;10.63;4.00;;;12.70;99.90;;;;;;5110738;28;20046;-83
2023/06/01 04:29:19;;;;;;;13.48;6.40;;;12.70;99.90;;;;;;5110763;28;20039;-83
2023/06/01 04:31:45;;;;;;;12.57;3.40;;;12.70;99.90;;;;;;5110416;28;20497;-83
2023/06/01 04:34:10;;;;;;;11.43;3.58;;;12.70;99.90;;;;;;5110763;28;20051;-83
2023/06/01 04:36:38;;;;;;;10.13;3.65;;;12.70;99.90;;;;;;5112017;28;20043;-83
2023/06/01 04:39:07;;;;;;;12.82;4.35;;;12.70;99.90;;;;;;5110861;28;20110;-83
2023/06/01 04:41:35;;;;;;;12.02;3.95;;;12.70;99.90;;;;;;5110343;28;20036;-84
2023/06/01 04:44:05;;;;;;;12.60;5.93;;;12.70;99.90;;;;;;5111155;28;20092;-84
2023/06/01 04:46:31;;;;;;;13.93;3.70;;;12.80;99.90;;;;;;5110756;28;20501;-83
2023/06/01 04:48:59;;;;;;;10.63;3.70;;;12.70;99.90;;;;;;5111814;28;20408;-83
2023/06/01 04:51:26;;;;;;;9.18;3.03;;;12.70;99.90;;;;;;5110191;28;20115;-83
2023/06/01 04:53:53;;;;;;;9.07;2.50;;;12.70;99.90;;;;;;5110560;28;20048;-83
2023/06/01 04:56:20;;;;;;;9.90;3.38;;;12.70;99.90;;;;;;5110628;28;20123;-83
2023/06/01 04:58:49;;;;;;;9.38;3.80;;;12.70;99.90;;;;;;5110445;28;20035;-83
2023/06/01 05:01:15;;;;;;;9.13;3.83;;;12.70;99.90;;;;;;5110575;28;20039;-83
2023/06/01 05:03:45;;;;;;;11.23;5.55;;;12.70;99.90;;;;;;5110454;28;20051;-83
2023/06/01 05:06:14;;;;;;;10.23;3.33;;;12.80;99.90;;;;;;5110705;28;20043;-83
2023/06/01 05:08:41;;;;;;;8.43;2.95;;;12.80;99.90;;;;;;5111690;28;20405;-83
2023/06/01 05:11:08;;;;;;;11.20;2.67;;;12.70;99.90;;;;;;5111267;28;20036;-83
2023/06/01 05:13:40;;;;;;;10.50;3.33;;;12.70;99.90;;;;;;5110210;28;20531;-83
2023/06/01 05:16:07;;;;;;;9.43;3.17;;;12.80;99.90;;;;;;5110462;28;20157;-83
2023/06/01 05:18:34;;;;;;;10.50;3.92;;;12.70;99.90;;;;;;5093263;28;20547;-83
2023/06/01 05:21:00;;;;;;;10.13;2.72;;;12.80;99.90;;;;;;5113856;28;20079;-83
2023/06/01 05:23:26;;;;;;;8.90;3.13;;;12.80;99.90;;;;;;5115389;28;20497;-83
2023/06/01 05:25:54;;;;;;;12.98;5.75;;;12.70;99.90;;;;;;5113995;28;20040;-83
2023/06/01 05:28:20;;;;;;;12.10;5.82;;;12.90;99.90;;;;;;5114002;28;20048;-83
2023/06/01 05:30:46;;;;;;;9.93;3.40;;;12.90;99.90;;;;;;5096604;28;20039;-83
2023/06/01 05:33:12;;;;;;;10.68;3.22;;;12.80;99.90;;;;;;5113860;28;20121;-84
2023/06/01 05:35:38;;;;;;;12.20;5.90;;;12.80;99.90;;;;;;5113766;28;20071;-83
2023/06/01 05:38:03;;;;;;;12.57;5.78;;;12.90;99.90;;;;;;5115136;28;20073;-83
2023/06/01 05:40:29;;;;;;;10.48;3.42;;;13.00;99.90;;;;;;5113645;28;20043;-83
2023/06/01 05:42:55;;;;;;;22.85;5.03;;;12.90;99.90;;;;;;5113775;28;20536;-83
2023/06/01 05:45:20;;;;;;;13.65;4.05;;;12.90;99.90;;;;;;5113684;28;20041;-83
2023/06/01 05:47:46;;;;;;;14.82;6.38;;;12.80;99.90;;;;;;5113735;28;20035;-83
2023/06/01 05:50:12;;;;;;;15.30;6.22;;;12.90;99.90;;;;;;5113235;28;20044;-83
2023/06/01 05:52:39;;;;;;;14.07;4.00;;;13.00;99.90;;;;;;5105449;27;20115;-83
2023/06/01 05:55:05;;;;;;;10.50;3.13;;;13.00;99.90;;;;;;5076212;28;20040;-83
2023/06/01 05:57:31;;;;;;;12.98;3.67;;;12.90;99.90;;;;;;5076237;28;20090;-83
2023/06/01 05:59:56;;;;;;;14.30;6.57;;;12.90;99.90;;;;;;5075725;28;20109;-83
2023/06/01 06:02:22;;;;;;;12.02;4.32;;;13.00;99.90;;;;;;5076122;28;20048;-83
2023/06/01 06:04:48;;;;;;;20.33;5.43;;;13.00;99.90;;;;;;5076058;28;20044;-83
2023/06/01 06:07:13;;;;;;;13.30;6.30;;;13.00;99.90;;;;;;5076011;28;20044;-83
2023/06/01 06:09:40;;;;;;;13.80;4.82;;;13.10;99.90;;;;;;5085404;27;20067;-83
2023/06/01 06:12:06;;;;;;;10.93;3.58;;;13.10;99.90;;;;;;5105917;27;20126;-83
2023/06/01 06:14:32;;;;;;;13.48;4.53;;;13.00;99.90;;;;;;5106539;27;20032;-83
2023/06/01 06:16:58;;;;;;;22.50;4.13;;;13.00;99.90;;;;;;5104620;28;20047;-83
2023/06/01 06:19:23;;;;;;;14.27;4.25;;;13.00;99.90;;;;;;5103306;28;20058;-83
2023/06/01 06:21:49;;;;;;;13.02;5.10;;;13.00;99.90;;;;;;5113985;28;20122;-83
2023/06/01 06:24:15;;;;;;;7.68;2.60;;;13.10;99.90;;;;;;5095772;28;20073;-83
2023/06/01 06:26:41;;;;;;;8.88;3.33;;;13.10;99.90;;;;;;5095864;28;20043;-83
2023/06/01 06:29:06;;;;;;;13.23;4.97;;;13.00;99.90;;;;;;5095865;28;20056;-83
2023/06/01 06:31:32;;;;;;;8.40;2.83;;;13.10;99.90;;;;;;5095076;28;20040;-83
2023/06/01 06:33:59;;;;;;;10.55;3.58;;;13.10;99.90;;;;;;5095958;28;20077;-83
2023/06/01 06:36:24;;;;;;;9.88;3.20;;;13.10;99.90;;;;;;5079004;28;20048;-83
2023/06/01 06:38:50;;;;;;;8.02;3.60;;;13.10;99.90;;;;;;5113859;28;20382;-83
2023/06/01 06:41:15;;;;;;;9.63;2.65;;;13.20;99.90;;;;;;5095344;28;20548;-83
2023/06/01 06:43:41;;;;;;;6.47;2.30;;;13.20;99.90;;;;;;5079034;28;20047;-83
2023/06/01 06:46:07;;;;;;;11.07;4.35;;;13.10;99.90;;;;;;5095757;28;20450;-83
2023/06/01 06:48:33;;;;;;;8.10;2.83;;;13.20;99.90;;;;;;5113597;28;20039;-83
2023/06/01 06:50:59;;;;;;;10.63;3.45;;;13.20;99.90;;;;;;5095407;28;20480;-83
2023/06/01 06:53:24;;;;;;;10.05;4.68;;;13.20;99.90;;;;;;5113535;28;20035;-83
2023/06/01 06:55:50;;;;;;;12.23;4.80;;;13.30;99.90;;;;;;5095393;28;20119;-83
2023/06/01 06:58:15;;;;;;;8.75;2.38;;;13.40;99.90;;;;;;5113783;28;20416;-83
2023/06/01 07:00:41;;;;;;;8.07;2.65;;;13.40;99.90;;;;;;5113087;28;20499;-83
2023/06/01 07:03:07;;;;;;;9.98;4.10;;;13.30;99.90;;;;;;5095323;28;20086;-83
2023/06/01 07:05:33;;;;;;;5.60;1.98;;;13.40;99.90;;;;;;5095371;28;20036;-83
2023/06/01 07:07:58;;;;;;;10.40;4.03;;;13.40;99.90;;;;;;5095125;28;20552;-84
2023/06/01 07:10:25;;;;;;;7.80;2.40;;;13.50;99.90;;;;;;5112832;28;20043;-83
2023/06/01 07:12:51;;;;;;;8.52;3.88;;;13.50;99.90;;;;;;5094892;28;20436;-83
2023/06/01 07:15:17;;;;;;;6.15;2.13;;;13.60;99.90;;;;;;5113163;28;20046;-83
2023/06/01 07:17:43;;;;;;;6.82;2.08;;;13.60;99.90;;;;;;5095125;28;20496;-83
2023/06/01 07:20:11;;;;;;;9.70;3.00;;;13.60;99.90;;;;;;5094201;28;20126;-83
2023/06/01 07:22:38;;;;;;;7.68;3.00;;;13.70;99.90;;;;;;5094768;28;20066;-83
2023/06/01 07:25:05;;;;;;;8.95;3.55;;;13.70;99.90;;;;;;5099930;27;20068;-83
2023/06/01 07:27:31;;;;;;;8.52;2.53;;;13.80;99.90;;;;;;5130132;27;20039;-83
2023/06/01 07:29:57;;;;;;;9.70;2.72;;;13.80;99.90;;;;;;5103988;27;20123;-83
2023/06/01 07:32:24;;;;;;;11.27;2.95;;;13.70;99.90;;;;;;5105096;27;20123;-83
2023/06/01 07:34:50;;;;;;;8.63;3.00;;;13.70;99.90;;;;;;5100474;27;20049;-83
2023/06/01 07:37:21;;;;;;;8.85;4.22;;;13.70;99.90;;;;;;5122875;27;20043;-83
2023/06/01 07:39:50;;;;;;;11.60;4.35;;;13.80;99.90;;;;;;5104951;27;20039;-83
2023/06/01 07:42:16;;;;;;;10.63;3.65;;;13.90;99.90;;;;;;5103676;28;20453;-83
2023/06/01 07:44:41;;;;;;;10.55;4.53;;;13.80;99.90;;;;;;5103298;28;20050;-83
2023/06/01 07:47:07;;;;;;;11.32;4.10;;;13.90;99.90;;;;;;5108358;27;20400;-84
2023/06/01 07:49:36;;;;;;;9.88;2.45;;;14.00;99.90;;;;;;5114260;27;20082;-83
2023/06/01 07:52:03;;;;;;;6.05;2.38;;;14.00;99.90;;;;;;5114494;27;20039;-83
2023/06/01 07:54:28;;;;;;;8.52;3.67;;;14.00;99.90;;;;;;5114611;27;20459;-83
2023/06/01 07:56:54;;;;;;;7.90;2.45;;;14.00;99.90;;;;;;5114564;27;20039;-83
2023/06/01 07:59:23;;;;;;;9.05;2.53;;;14.00;99.90;;;;;;5097561;27;20088;-83
2023/06/01 08:01:52;;;;;;;8.57;2.53;;;14.10;99.90;;;;;;5132677;27;20057;-83
2023/06/01 08:04:20;;;;;;;8.77;4.00;;;14.10;99.90;;;;;;5114532;27;20080;-83
2023/06/01 08:06:52;;;;;;;9.40;4.07;;;14.10;99.90;;;;;;5114483;27;20047;-83
2023/06/01 08:09:19;;;;;;;11.43;3.47;;;14.20;99.90;;;;;;5114675;27;20043;-83
2023/06/01 08:11:45;;;;;;;9.50;2.97;;;14.10;99.90;;;;;;5132247;27;20391;-84
2023/06/01 08:14:12;;;;;;;6.32;2.55;;;14.10;99.90;;;;;;5114764;27;20075;-86
2023/06/01 08:16:38;;;;;;;8.13;3.03;;;14.10;99.90;;;;;;5132788;27;20477;-85
2023/06/01 08:19:03;;;;;;;9.77;4.50;;;14.20;99.90;;;;;;5128930;27;20046;-86
2023/06/01 08:21:29;;;;;;;8.82;3.03;;;14.20;99.90;;;;;;5104554;28;20493;-86
2023/06/01 08:23:55;;;;;;;9.93;4.68;;;14.20;99.90;;;;;;5096204;28;20047;-86
2023/06/01 08:26:22;;;;;;;7.72;2.70;;;14.30;99.90;;;;;;5111977;28;20032;-85
2023/06/01 08:28:51;;;;;;;7.70;2.70;;;14.30;99.90;;;;;;5112104;28;20031;-85
2023/06/01 08:31:21;;;;;;;9.80;3.30;;;14.30;99.90;;;;;;5093334;28;20053;-85
2023/06/01 08:33:48;;;;;;;8.55;2.78;;;14.40;99.90;;;;;;5076902;28;20044;-86
2023/06/01 08:36:14;;;;;;;8.90;3.38;;;14.50;99.90;;;;;;5093589;28;20562;-86
2023/06/01 08:38:41;;;;;;;8.52;2.40;;;14.60;99.90;;;;;;5093742;28;20047;-85
2023/06/01 08:41:32;;;;;;;5.30;1.70;;;14.60;99.90;;;;;;5093692;28;20043;-85
2023/06/01 08:44:02;;;;;;;7.32;2.20;;;14.60;99.90;;;;;;5076670;28;20047;-85
2023/06/01 08:46:30;;;;;;;7.85;2.90;;;14.60;99.90;;;;;;5093715;28;20076;-85
2023/06/01 08:48:58;;;;;;;7.57;2.58;;;14.70;99.90;;;;;;5093107;28;20047;-85
2023/06/01 08:51:24;;;;;;;6.22;2.30;;;14.90;99.90;;;;;;5094012;28;20125;-83
2023/06/01 08:53:51;;;;;;;7.80;3.08;;;14.90;99.90;;;;;;5109707;27;20085;-83
2023/06/01 08:56:17;;;;;;;7.93;2.88;;;14.90;99.90;;;;;;5118124;27;20039;-83
2023/06/01 08:58:46;;;;;;;6.60;2.20;;;14.90;99.90;;;;;;5136317;27;20084;-84
2023/06/01 09:01:20;;;;;;;12.57;3.92;;;14.90;99.90;;;;;;5117683;27;20488;-83
2023/06/01 09:03:50;;;;;;;8.13;3.55;;;15.00;99.90;;;;;;5118118;27;20077;-84
2023/06/01 09:06:16;;;;;;;7.25;2.10;;;15.10;99.90;;;;;;5136282;27;20039;-83
2023/06/01 09:08:42;;;;;;;8.40;3.10;;;15.10;99.90;;;;;;5117788;27;20037;-84
2023/06/01 09:11:07;;;;;;;7.13;3.13;;;15.20;99.90;;;;;;5117547;27;20114;-83
2023/06/01 09:13:40;;;;;;;7.68;2.17;;;15.30;99.90;;;;;;5136107;27;20126;-83
2023/06/01 09:16:07;;;;;;;8.27;2.38;;;15.30;99.90;;;;;;5117427;27;20043;-83
2023/06/01 09:18:33;;;;;;;8.40;3.60;;;15.30;99.90;;;;;;5100474;27;20036;-83
2023/06/01 09:21:12;;;;;;;7.47;3.15;;;15.30;99.90;;;;;;5106328;28;20031;-83
2023/06/01 09:23:38;;;;;;;6.93;1.80;;;15.40;99.90;;;;;;5096178;28;20130;-83
2023/06/01 09:26:12;;;;;;;8.18;2.60;;;15.40;99.90;;;;;;5114485;28;20119;-83
2023/06/01 09:28:56;;;;;;;6.25;2.20;;;15.50;99.90;;;;;;5096027;28;20071;-83
2023/06/01 09:31:36;;;;;;;8.38;2.70;;;15.50;99.90;;;;;;5096033;28;20078;-83
2023/06/01 09:34:02;;;;;;;8.10;2.85;;;15.50;99.90;;;;;;5079755;28;20043;-83
2023/06/01 09:36:28;;;;;;;6.60;2.25;;;15.60;99.90;;;;;;5114444;28;20382;-83
2023/06/01 09:39:02;;;;;;;8.27;3.03;;;15.60;99.90;;;;;;5096222;28;20492;-83
2023/06/01 09:41:43;;;;;;;7.03;3.33;;;15.50;99.90;;;;;;5114277;28;20097;-83
2023/06/01 09:44:09;;;;;;;6.55;2.38;;;15.60;99.90;;;;;;5096256;28;20569;-83
2023/06/01 09:46:49;;;;;;;11.73;4.88;;;15.60;99.90;;;;;;5114559;28;20040;-83
2023/06/01 09:49:24;;;;;;;10.57;4.22;;;15.70;99.90;;;;;;5095945;28;20036;-83
2023/06/01 09:51:51;;;;;;;7.68;3.13;;;15.70;99.90;;;;;;5096096;28;20051;-84
2023/06/01 09:54:28;;;;;;;7.95;2.50;;;15.70;99.90;;;;;;5095982;28;20040;-83
2023/06/01 09:56:55;;;;;;;6.47;2.53;;;15.70;99.90;;;;;;5096209;28;20043;-83
2023/06/01 09:59:25;;;;;;;6.60;2.65;;;15.70;99.90;;;;;;5095836;28;20040;-83
2023/06/01 10:01:53;;;;;;;13.15;4.10;;;15.70;99.90;;;;;;5113962;28;20040;-83
2023/06/01 10:04:40;;;;;;;7.88;3.55;;;15.80;99.90;;;;;;5095777;28;20048;-83
2023/06/01 10:07:07;;;;;;;6.53;2.55;;;15.80;99.90;;;;;;5094856;28;20047;-83
2023/06/01 10:09:35;;;;;;;5.30;2.13;;;15.80;99.90;;;;;;5095307;28;20078;-83
2023/06/01 10:12:02;;;;;;;5.75;2.47;;;15.70;99.90;;;;;;5095499;28;20048;-83
2023/06/01 10:14:27;;;;;;;7.45;2.90;;;15.80;99.90;;;;;;5095531;28;20071;-83
2023/06/01 10:16:53;;;;;;;4.97;1.80;;;15.80;99.90;;;;;;5095445;28;20065;-83
2023/06/01 10:19:21;;;;;;;7.80;3.20;;;15.80;99.90;;;;;;5095474;28;20040;-83
2023/06/01 10:21:47;;;;;;;7.85;3.28;;;15.80;99.90;;;;;;5121078;27;20405;-83
2023/06/01 10:24:16;;;;;;;6.72;1.98;;;15.80;99.90;;;;;;5122375;27;20043;-83
2023/06/01 10:27:14;;;;;;;11.35;3.67;;;15.80;99.90;;;;;;5105615;27;20046;-83
2023/06/01 10:29:41;;;;;;;6.80;2.90;;;15.80;99.90;;;;;;5120173;27;20066;-83
2023/06/01 10:32:36;;;;;;;7.88;2.70;;;15.90;99.90;;;;;;5104751;27;20047;-83
2023/06/01 10:35:02;;;;;;;4.75;1.63;;;15.90;99.90;;;;;;5102822;27;20440;-83
2023/06/01 10:37:27;;;;;;;5.05;1.90;;;15.90;99.90;;;;;;5103980;27;20540;-83
2023/06/01 10:40:08;;;;;;;5.03;2.22;;;15.90;99.90;;;;;;5105658;27;20039;-83
2023/06/01 10:42:36;;;;;;;5.75;2.00;;;16.00;99.90;;;;;;5106086;27;20098;-84
2023/06/01 10:45:02;;;;;;;5.25;2.13;;;16.10;99.90;;;;;;5104677;27;20114;-84
2023/06/01 10:47:34;;;;;;;5.53;2.15;;;16.20;99.90;;;;;;5104358;27;20168;-83
2023/06/01 10:50:00;;;;;;;5.28;1.80;;;16.30;99.90;;;;;;5100245;28;20040;-83
2023/06/01 10:52:33;;;;;;;5.22;1.88;;;16.20;99.90;;;;;;5094747;28;20093;-83
2023/06/01 10:55:11;;;;;;;8.07;3.67;;;16.20;99.90;;;;;;5094973;28;20167;-84
2023/06/01 10:57:37;;;;;;;9.02;3.85;;;16.20;99.90;;;;;;5094719;28;20039;-84
2023/06/01 11:00:26;;;;;;;12.18;3.17;;;16.20;99.90;;;;;;5094518;28;20035;-83
2023/06/01 11:02:59;;;;;;;9.45;3.78;;;16.10;99.90;;;;;;5094760;28;20118;-83
2023/06/01 11:05:38;;;;;;;10.40;4.60;;;16.10;99.90;;;;;;5094687;28;20047;-83
2023/06/01 11:08:05;;;;;;;12.40;4.15;;;16.10;99.90;;;;;;5093251;28;20456;-84
2023/06/01 11:10:56;;;;;;;10.65;4.43;;;16.10;99.90;;;;;;5110363;28;20453;-83
2023/06/01 11:13:36;;;;;;;10.50;3.63;;;16.10;99.90;;;;;;5111034;28;20485;-84
2023/06/01 11:16:07;;;;;;;10.32;3.05;;;16.00;99.90;;;;;;5111035;28;20075;-83
2023/06/01 11:18:46;;;;;;;9.73;4.57;;;16.00;99.90;;;;;;5092655;28;20114;-83
2023/06/01 11:21:26;;;;;;;11.05;4.35;;;16.00;99.90;;;;;;5111483;28;20056;-83
2023/06/01 11:23:56;;;;;;;10.68;5.03;;;16.00;99.90;;;;;;5110680;28;20044;-83
2023/06/01 11:26:30;;;;;;;11.02;4.63;;;16.10;99.90;;;;;;5112168;28;20516;-84
2023/06/01 11:29:28;;;;;;;11.57;4.57;;;16.10;99.90;;;;;;5093817;28;20051;-83
2023/06/01 11:31:54;;;;;;;11.25;4.72;;;16.10;99.90;;;;;;5011889;28;20054;-84
2023/06/01 11:34:37;;;;;;;10.85;4.53;;;16.10;99.90;;;;;;4976550;28;20066;-83
2023/06/01 11:37:03;;;;;;;10.80;4.80;;;16.20;99.90;;;;;;4998010;28;20076;-83
2023/06/01 11:39:29;;;;;;;12.27;3.35;;;16.20;99.90;;;;;;5002327;28;20076;-83
2023/06/01 11:42:12;;;;;;;9.77;3.90;;;16.20;99.90;;;;;;5002301;28;20069;-83
2023/06/01 11:44:58;;;;;;;15.32;4.85;;;16.20;99.90;;;;;;5002834;28;20045;-83
2023/06/01 11:47:28;;;;;;;11.48;5.53;;;16.20;99.90;;;;;;5004109;28;20056;-83
2023/06/01 11:49:53;;;;;;;12.90;4.65;;;16.30;99.90;;;;;;5003375;28;20061;-83
2023/06/01 11:52:20;;;;;;;9.82;3.85;;;16.40;99.90;;;;;;5008483;28;20041;-83
2023/06/01 11:54:47;;;;;;;12.77;4.50;;;16.40;99.90;;;;;;5000156;28;20530;-82
2023/06/01 11:57:13;;;;;;;13.10;4.85;;;16.40;99.80;;;;;;5014152;28;20100;-83
2023/06/01 11:59:41;;;;;;;13.15;5.70;;;16.50;99.30;;;;;;5007037;28;20037;-84
2023/06/01 12:02:26;;;;;;;13.05;3.95;;;16.50;98.50;;;;;;5014716;28;20176;-84
2023/06/01 12:04:59;;;;;;;11.73;3.70;;;16.40;98.60;;;;;;4997191;28;20511;-84
2023/06/01 12:07:25;;;;;;;8.40;2.78;;;16.40;98.50;;;;;;5047740;28;20059;-84
2023/06/01 12:09:53;;;;;;;10.93;3.45;;;16.40;98.50;;;;;;5074860;27;20505;-84
2023/06/01 12:12:28;;;;;;;10.50;3.70;;;16.40;98.80;;;;;;5121268;27;20035;-84
2023/06/01 12:14:54;;;;;;;10.77;3.83;;;16.50;98.60;;;;;;5089586;28;20699;-84
2023/06/01 12:17:20;;;;;;;12.02;3.90;;;16.60;98.30;;;;;;5131965;27;20035;-84
2023/06/01 12:19:50;;;;;;;8.38;2.40;;;16.70;96.90;;;;;;5113759;27;20054;-85
2023/06/01 12:22:17;;;;;;;11.10;3.60;;;16.60;96.20;;;;;;5114201;28;20503;-84
2023/06/01 12:24:46;;;;;;;9.95;3.40;;;16.70;95.70;;;;;;5114140;28;20078;-84
2023/06/01 12:27:17;;;;;;;11.10;3.45;;;16.70;94.50;;;;;;5113838;28;20039;-84
2023/06/01 12:29:44;;;;;;;11.43;3.70;;;16.80;94.30;;;;;;5134300;27;20054;-84
2023/06/01 12:32:12;;;;;;;9.88;3.58;;;16.90;94.50;;;;;;5118069;27;20054;-84
2023/06/01 12:34:39;;;;;;;8.27;2.60;;;17.00;94.10;;;;;;5117943;27;20043;-84
2023/06/01 12:37:12;;;;;;;10.98;3.38;;;17.00;94.00;;;;;;5117600;27;20035;-84
2023/06/01 12:39:39;;;;;;;10.07;3.60;;;17.10;93.30;;;;;;5117105;27;20039;-84
2023/06/01 12:42:06;;;;;;;10.65;3.75;;;17.20;92.10;;;;;;5118040;27;20039;-84
2023/06/01 12:44:35;;;;;;;9.18;3.17;;;17.30;91.70;;;;;;5100902;27;20039;-84
2023/06/01 12:47:01;;;;;;;10.40;3.85;;;17.40;91.40;;;;;;5118101;27;20118;-84
2023/06/01 12:49:27;;;;;;;14.73;3.70;;;17.50;91.70;;;;;;5117513;27;20573;-85